sensor_id;sensor_type;location;lat;lon;timestamp;pressure;altitude;pressure_sealevel;temperature;humidity
11444;BME280;5778;47.856;12.154;2023-05-07T00:01:37;96269.91;;;12.84;100.00
11444;BME280;5778;47.856;12.154;2023-05-07T00:04:04;96275.50;;;12.82;100.00
11444;BME280;5778;47.856;12.154;2023-05-07T00:06:32;96272.88;;;12.72;100.00
11444;BME280;5778;47.856;12.154;2023-05-07T00:09:00;96279.53;;;12.65;100.00
11444;BME280;5778;47.856;12.154;2023-05-07T00:11:27;96274.44;;;12.53;100.00
11444;BME280;5778;47.856;12.154;2023-05-07T00:13:54;96274.13;;;12.35;100.00
11444;BME280;5778;47.856;12.154;2023-05-07T00:16:21;96275.22;;;12.39;100.00
11444;BME280;5778;47.856;12.154;2023-05-07T00:18:49;96274.69;;;12.32;100.00
11444;BME280;5778;47.856;12.154;2023-05-07T00:21:16;96284.78;;;12.25;100.00
11444;BME280;5778;47.856;12.154;2023-05-07T00:23:43;96284.25;;;12.28;100.00
11444;BME280;5778;47.856;12.154;2023-05-07T00:26:10;96282.09;;;12.20;100.00
11444;BME280;5778;47.856;12.154;2023-05-07T00:28:38;96286.38;;;12.21;100.00
11444;BME280;5778;47.856;12.154;2023-05-07T00:31:06;96279.41;;;12.20;100.00
11444;BME280;5778;47.856;12.154;2023-05-07T00:33:33;96274.66;;;12.22;100.00
11444;BME280;5778;47.856;12.154;2023-05-07T00:36:01;96275.19;;;12.24;100.00
11444;BME280;5778;47.856;12.154;2023-05-07T00:38:28;96278.38;;;12.16;100.00
11444;BME280;5778;47.856;12.154;2023-05-07T00:40:55;96285.06;;;12.23;100.00
11444;BME280;5778;47.856;12.154;2023-05-07T00:43:22;96278.13;;;12.27;100.00
11444;BME280;5778;47.856;12.154;2023-05-07T00:45:49;96273.59;;;12.28;100.00
11444;BME280;5778;47.856;12.154;2023-05-07T00:48:16;96282.66;;;12.22;100.00
11444;BME280;5778;47.856;12.154;2023-05-07T00:50:44;96284.78;;;12.25;100.00
11444;BME280;5778;47.856;12.154;2023-05-07T00:53:14;96284.25;;;12.28;100.00
11444;BME280;5778;47.856;12.154;2023-05-07T00:55:41;96284.00;;;12.24;100.00
11444;BME280;5778;47.856;12.154;2023-05-07T00:58:08;96280.25;;;12.25;100.00
11444;BME280;5778;47.856;12.154;2023-05-07T01:00:35;96276.25;;;12.23;100.00
11444;BME280;5778;47.856;12.154;2023-05-07T01:03:02;96281.03;;;12.16;100.00
11444;BME280;5778;47.856;12.154;2023-05-07T01:05:29;96284.75;;;12.10;100.00
11444;BME280;5778;47.856;12.154;2023-05-07T01:07:57;96285.28;;;12.12;100.00
11444;BME280;5778;47.856;12.154;2023-05-07T01:10:26;96285.81;;;12.14;100.00
11444;BME280;5778;47.856;12.154;2023-05-07T01:12:57;96276.22;;;12.18;100.00
11444;BME280;5778;47.856;12.154;2023-05-07T01:15:25;96284.25;;;12.23;100.00
11444;BME280;5778;47.856;12.154;2023-05-07T01:17:53;96276.50;;;12.26;100.00
11444;BME280;5778;47.856;12.154;2023-05-07T01:20:27;96282.09;;;12.20;100.00
11444;BME280;5778;47.856;12.154;2023-05-07T01:22:57;96276.78;;;12.25;100.00
11444;BME280;5778;47.856;12.154;2023-05-07T01:25:26;96272.47;;;12.09;100.00
11444;BME280;5778;47.856;12.154;2023-05-07T01:27:57;96271.91;;;12.02;100.00
11444;BME280;5778;47.856;12.154;2023-05-07T01:30:28;96281.53;;;12.08;100.00
11444;BME280;5778;47.856;12.154;2023-05-07T01:33:00;96283.69;;;12.16;100.00
11444;BME280;5778;47.856;12.154;2023-05-07T01:35:33;96282.09;;;12.20;100.00
11444;BME280;5778;47.856;12.154;2023-05-07T01:38:03;96281.03;;;12.21;100.00
11444;BME280;5778;47.856;12.154;2023-05-07T01:40:31;96280.25;;;12.25;100.00
11444;BME280;5778;47.856;12.154;2023-05-07T01:42:59;96278.34;;;12.11;100.00
11444;BME280;5778;47.856;12.154;2023-05-07T01:45:27;96271.94;;;12.12;100.00
11444;BME280;5778;47.856;12.154;2023-05-07T01:47:55;96267.69;;;12.11;100.00
11444;BME280;5778;47.856;12.154;2023-05-07T01:50:22;96258.59;;;12.07;100.00
11444;BME280;5778;47.856;12.154;2023-05-07T01:52:50;96265.78;;;11.96;100.00
11444;BME280;5778;47.856;12.154;2023-05-07T01:55:19;96265.22;;;11.94;100.00
11444;BME280;5778;47.856;12.154;2023-05-07T01:57:46;96268.16;;;11.88;100.00
11444;BME280;5778;47.856;12.154;2023-05-07T02:00:14;96278.72;;;11.68;100.00
11444;BME280;5778;47.856;12.154;2023-05-07T02:02:44;96288.84;;;11.66;100.00
11444;BME280;5778;47.856;12.154;2023-05-07T02:05:23;96275.50;;;11.71;100.00
11444;BME280;5778;47.856;12.154;2023-05-07T02:07:58;96275.03;;;11.79;100.00
11444;BME280;5778;47.856;12.154;2023-05-07T02:10:28;96274.50;;;11.87;100.00
11444;BME280;5778;47.856;12.154;2023-05-07T02:12:55;96277.19;;;11.87;100.00
11444;BME280;5778;47.856;12.154;2023-05-07T02:15:22;96279.34;;;11.90;100.00
11444;BME280;5778;47.856;12.154;2023-05-07T02:17:59;96276.16;;;11.93;100.00
11444;BME280;5778;47.856;12.154;2023-05-07T02:20:26;96281.19;;;11.89;100.00
11444;BME280;5778;47.856;12.154;2023-05-07T02:22:53;96270.25;;;11.86;100.00
11444;BME280;5778;47.856;12.154;2023-05-07T02:25:20;96275.03;;;11.79;100.00
11444;BME280;5778;47.856;12.154;2023-05-07T02:27:49;96271.84;;;11.77;100.00
11444;BME280;5778;47.856;12.154;2023-05-07T02:30:18;96268.88;;;11.68;100.00
11444;BME280;5778;47.856;12.154;2023-05-07T02:32:47;96270.78;;;11.78;100.00
11444;BME280;5778;47.856;12.154;2023-05-07T02:35:13;96264.66;;;11.82;100.00
11444;BME280;5778;47.856;12.154;2023-05-07T02:37:40;96262.53;;;11.84;100.00
11444;BME280;5778;47.856;12.154;2023-05-07T02:40:08;96265.69;;;11.76;100.00
11444;BME280;5778;47.856;12.154;2023-05-07T02:42:35;96263.06;;;11.81;100.00
11444;BME280;5778;47.856;12.154;2023-05-07T02:45:05;96259.03;;;11.79;100.00
11444;BME280;5778;47.856;12.154;2023-05-07T02:47:33;96260.66;;;11.80;100.00
11444;BME280;5778;47.856;12.154;2023-05-07T02:50:01;96260.66;;;11.80;100.00
11444;BME280;5778;47.856;12.154;2023-05-07T02:52:29;96258.25;;;11.83;100.00
11444;BME280;5778;47.856;12.154;2023-05-07T02:54:56;96270.22;;;11.81;100.00
11444;BME280;5778;47.856;12.154;2023-05-07T02:57:23;96265.41;;;11.73;100.00
11444;BME280;5778;47.856;12.154;2023-05-07T02:59:50;96276.06;;;11.73;100.00
11444;BME280;5778;47.856;12.154;2023-05-07T03:02:20;96271.00;;;11.71;100.00
11444;BME280;5778;47.856;12.154;2023-05-07T03:04:47;96271.22;;;11.65;100.00
11444;BME280;5778;47.856;12.154;2023-05-07T03:07:14;96272.25;;;11.59;100.00
11444;BME280;5778;47.856;12.154;2023-05-07T03:09:41;96273.09;;;11.59;100.00
11444;BME280;5778;47.856;12.154;2023-05-07T03:12:08;96265.28;;;11.53;100.00
11444;BME280;5778;47.856;12.154;2023-05-07T03:14:35;96264.72;;;11.46;100.00
11444;BME280;5778;47.856;12.154;2023-05-07T03:17:02;96262.84;;;11.41;100.00
11444;BME280;5778;47.856;12.154;2023-05-07T03:19:30;96263.91;;;11.45;100.00
11444;BME280;5778;47.856;12.154;2023-05-07T03:21:57;96265.00;;;11.49;100.00
11444;BME280;5778;47.856;12.154;2023-05-07T03:24:24;96265.53;;;11.51;100.00
11444;BME280;5778;47.856;12.154;2023-05-07T03:26:51;96269.00;;;11.52;100.00
11444;BME280;5778;47.856;12.154;2023-05-07T03:29:18;96265.81;;;11.50;100.00
11444;BME280;5778;47.856;12.154;2023-05-07T03:31:46;96268.44;;;11.45;100.00
11444;BME280;5778;47.856;12.154;2023-05-07T03:34:13;96278.81;;;11.41;100.00
11444;BME280;5778;47.856;12.154;2023-05-07T03:36:42;96280.41;;;11.42;100.00
11444;BME280;5778;47.856;12.154;2023-05-07T03:39:11;96273.78;;;11.45;100.00
11444;BME280;5778;47.856;12.154;2023-05-07T03:41:40;96274.28;;;11.42;100.00
11444;BME280;5778;47.856;12.154;2023-05-07T03:44:09;96270.00;;;11.36;100.00
11444;BME280;5778;47.856;12.154;2023-05-07T03:46:36;96273.72;;;11.35;100.00
11444;BME280;5778;47.856;12.154;2023-05-07T03:49:03;96270.56;;;11.43;100.00
11444;BME280;5778;47.856;12.154;2023-05-07T03:51:30;96271.66;;;11.47;100.00
11444;BME280;5778;47.856;12.154;2023-05-07T03:53:59;96271.09;;;11.40;100.00
11444;BME280;5778;47.856;12.154;2023-05-07T03:56:28;96268.69;;;11.38;100.00
11444;BME280;5778;47.856;12.154;2023-05-07T03:58:57;96267.84;;;11.38;100.00
11444;BME280;5778;47.856;12.154;2023-05-07T04:01:24;96265.72;;;11.35;100.00
11444;BME280;5778;47.856;12.154;2023-05-07T04:03:51;96268.16;;;11.36;100.00
11444;BME280;5778;47.856;12.154;2023-05-07T04:06:19;96274.25;;;11.37;100.00
11444;BME280;5778;47.856;12.154;2023-05-07T04:08:48;96271.88;;;11.40;100.00
11444;BME280;5778;47.856;12.154;2023-05-07T04:11:16;96266.81;;;11.39;100.00
11444;BME280;5778;47.856;12.154;2023-05-07T04:13:43;96265.75;;;11.40;100.00
11444;BME280;5778;47.856;12.154;2023-05-07T04:16:10;96275.09;;;11.42;100.00
11444;BME280;5778;47.856;12.154;2023-05-07T04:18:38;96267.31;;;11.36;100.00
11444;BME280;5778;47.856;12.154;2023-05-07T04:21:05;96264.88;;;11.29;100.00
11444;BME280;5778;47.856;12.154;2023-05-07T04:23:35;96273.16;;;11.28;100.00
11444;BME280;5778;47.856;12.154;2023-05-07T04:26:07;96275.75;;;11.18;100.00
11444;BME280;5778;47.856;12.154;2023-05-07T04:28:41;96287.50;;;11.27;100.00
11444;BME280;5778;47.856;12.154;2023-05-07T04:31:08;96278.72;;;11.26;100.00
11444;BME280;5778;47.856;12.154;2023-05-07T04:33:36;96282.19;;;11.32;100.00
11444;BME280;5778;47.856;12.154;2023-05-07T04:36:06;96289.47;;;11.41;100.00
11444;BME280;5778;47.856;12.154;2023-05-07T04:38:39;96300.66;;;11.43;100.00
11444;BME280;5778;47.856;12.154;2023-05-07T04:41:06;96296.66;;;11.41;100.00
11444;BME280;5778;47.856;12.154;2023-05-07T04:43:40;96302.56;;;11.53;100.00
11444;BME280;5778;47.856;12.154;2023-05-07T04:46:09;96301.06;;;11.62;100.00
11444;BME280;5778;47.856;12.154;2023-05-07T04:48:37;96304.53;;;11.67;100.00
11444;BME280;5778;47.856;12.154;2023-05-07T04:51:05;96309.84;;;11.62;100.00
11444;BME280;5778;47.856;12.154;2023-05-07T04:53:32;96305.03;;;11.59;100.00
11444;BME280;5778;47.856;12.154;2023-05-07T04:55:59;96305.13;;;11.74;100.00
11444;BME280;5778;47.856;12.154;2023-05-07T04:58:32;96304.88;;;11.81;100.00
11444;BME280;5778;47.856;12.154;2023-05-07T05:01:01;96315.03;;;11.84;100.00
11444;BME280;5778;47.856;12.154;2023-05-07T05:03:29;96318.97;;;11.76;100.00
11444;BME280;5778;47.856;12.154;2023-05-07T05:05:57;96318.13;;;11.66;100.00
11444;BME280;5778;47.856;12.154;2023-05-07T05:08:26;96318.97;;;11.76;100.00
11444;BME280;5778;47.856;12.154;2023-05-07T05:10:53;96326.78;;;11.88;100.00
11444;BME280;5778;47.856;12.154;2023-05-07T05:13:21;96325.72;;;11.89;100.00
11444;BME280;5778;47.856;12.154;2023-05-07T05:15:48;96331.84;;;11.94;100.00
11444;BME280;5778;47.856;12.154;2023-05-07T05:18:16;96320.72;;;12.07;100.00
11444;BME280;5778;47.856;12.154;2023-05-07T05:20:43;96325.28;;;12.17;100.00
11444;BME280;5778;47.856;12.154;2023-05-07T05:23:11;96328.22;;;12.20;100.00
11444;BME280;5778;47.856;12.154;2023-05-07T05:25:38;96335.44;;;12.25;100.00
11444;BME280;5778;47.856;12.154;2023-05-07T05:28:07;96330.69;;;12.37;100.00
11444;BME280;5778;47.856;12.154;2023-05-07T05:30:34;96336.84;;;12.52;100.00
11444;BME280;5778;47.856;12.154;2023-05-07T05:33:01;96336.91;;;12.72;100.00
11444;BME280;5778;47.856;12.154;2023-05-07T05:35:30;96339.84;;;12.76;100.00
11444;BME280;5778;47.856;12.154;2023-05-07T05:37:58;96344.34;;;12.75;100.00
11444;BME280;5778;47.856;12.154;2023-05-07T05:40:25;96337.69;;;12.83;100.00
11444;BME280;5778;47.856;12.154;2023-05-07T05:42:53;96344.19;;;13.02;100.00
11444;BME280;5778;47.856;12.154;2023-05-07T05:45:21;96335.63;;;13.15;100.00
11444;BME280;5778;47.856;12.154;2023-05-07T05:47:48;96330.78;;;13.07;100.00
11444;BME280;5778;47.856;12.154;2023-05-07T05:50:15;96323.06;;;13.20;100.00
11444;BME280;5778;47.856;12.154;2023-05-07T05:52:45;96328.13;;;13.37;100.00
11444;BME280;5778;47.856;12.154;2023-05-07T05:55:12;96327.56;;;13.60;100.00
11444;BME280;5778;47.856;12.154;2023-05-07T05:57:39;96321.06;;;13.91;100.00
11444;BME280;5778;47.856;12.154;2023-05-07T06:00:07;96321.03;;;14.06;100.00
11444;BME280;5778;47.856;12.154;2023-05-07T06:02:44;96310.25;;;14.26;100.00
11444;BME280;5778;47.856;12.154;2023-05-07T06:05:14;96311.78;;;14.42;100.00
11444;BME280;5778;47.856;12.154;2023-05-07T06:07:42;96317.03;;;14.57;100.00
11444;BME280;5778;47.856;12.154;2023-05-07T06:10:11;96302.00;;;14.66;100.00
11444;BME280;5778;47.856;12.154;2023-05-07T06:12:40;96310.22;;;14.79;100.00
11444;BME280;5778;47.856;12.154;2023-05-07T06:15:07;96308.53;;;14.88;100.00
11444;BME280;5778;47.856;12.154;2023-05-07T06:17:34;96313.78;;;15.03;100.00
11444;BME280;5778;47.856;12.154;2023-05-07T06:20:01;96308.81;;;15.20;100.00
11444;BME280;5778;47.856;12.154;2023-05-07T06:22:28;96304.22;;;15.26;100.00
11444;BME280;5778;47.856;12.154;2023-05-07T06:24:55;96314.31;;;15.39;100.00
11444;BME280;5778;47.856;12.154;2023-05-07T06:27:23;96310.31;;;15.36;100.00
11444;BME280;5778;47.856;12.154;2023-05-07T06:29:51;96302.41;;;15.50;100.00
11444;BME280;5778;47.856;12.154;2023-05-07T06:32:18;96299.91;;;15.58;100.00
11444;BME280;5778;47.856;12.154;2023-05-07T06:34:45;96302.78;;;15.67;100.00
11444;BME280;5778;47.856;12.154;2023-05-07T06:37:14;96303.59;;;15.91;100.00
11444;BME280;5778;47.856;12.154;2023-05-07T06:39:54;96301.97;;;15.90;100.00
11444;BME280;5778;47.856;12.154;2023-05-07T06:42:21;96301.53;;;16.06;100.00
11444;BME280;5778;47.856;12.154;2023-05-07T06:44:51;96298.66;;;16.21;100.00
11444;BME280;5778;47.856;12.154;2023-05-07T06:47:17;96301.41;;;16.16;100.00
11444;BME280;5778;47.856;12.154;2023-05-07T06:49:49;96296.03;;;16.40;100.00
11444;BME280;5778;47.856;12.154;2023-05-07T06:52:18;96299.75;;;16.62;100.00
11444;BME280;5778;47.856;12.154;2023-05-07T06:54:47;96292.91;;;16.51;100.00
11444;BME280;5778;47.856;12.154;2023-05-07T06:57:16;96299.31;;;16.74;100.00
11444;BME280;5778;47.856;12.154;2023-05-07T06:59:43;96294.50;;;16.89;100.00
11444;BME280;5778;47.856;12.154;2023-05-07T07:02:12;96289.94;;;16.90;100.00
11444;BME280;5778;47.856;12.154;2023-05-07T07:04:55;96293.13;;;16.92;100.00
11444;BME280;5778;47.856;12.154;2023-05-07T07:07:22;96296.06;;;17.09;100.00
11444;BME280;5778;47.856;12.154;2023-05-07T07:09:50;96290.72;;;17.41;100.00
11444;BME280;5778;47.856;12.154;2023-05-07T07:12:18;96298.06;;;17.54;100.00
11444;BME280;5778;47.856;12.154;2023-05-07T07:18:07;96294.88;;;16.83;100.00
11444;BME280;5778;47.856;12.154;2023-05-07T07:20:34;96290.78;;;17.36;100.00
11444;BME280;5778;47.856;12.154;2023-05-07T07:23:02;96294.56;;;17.35;100.00
11444;BME280;5778;47.856;12.154;2023-05-07T07:25:28;96297.31;;;17.48;100.00
11444;BME280;5778;47.856;12.154;2023-05-07T07:27:56;96290.28;;;17.34;100.00
11444;BME280;5778;47.856;12.154;2023-05-07T07:30:24;96288.09;;;17.68;100.00
11444;BME280;5778;47.856;12.154;2023-05-07T07:32:51;96288.41;;;17.80;100.00
11444;BME280;5778;47.856;12.154;2023-05-07T07:35:20;96296.56;;;17.75;100.00
11444;BME280;5778;47.856;12.154;2023-05-07T07:37:48;96291.41;;;18.05;100.00
11444;BME280;5778;47.856;12.154;2023-05-07T07:40:16;96291.19;;;17.75;100.00
11444;BME280;5778;47.856;12.154;2023-05-07T07:42:44;96284.31;;;18.09;100.00
11444;BME280;5778;47.856;12.154;2023-05-07T07:45:11;96289.41;;;18.11;100.00
11444;BME280;5778;47.856;12.154;2023-05-07T07:47:43;96293.59;;;17.90;100.00
11444;BME280;5778;47.856;12.154;2023-05-07T07:50:10;96289.59;;;18.28;100.00
11444;BME280;5778;47.856;12.154;2023-05-07T07:52:39;96294.06;;;18.19;100.00
11444;BME280;5778;47.856;12.154;2023-05-07T07:55:08;96290.53;;;18.37;100.00
11444;BME280;5778;47.856;12.154;2023-05-07T07:57:36;96291.47;;;18.90;100.00
11444;BME280;5778;47.856;12.154;2023-05-07T08:00:05;96291.97;;;18.56;100.00
11444;BME280;5778;47.856;12.154;2023-05-07T08:02:42;96293.28;;;18.59;100.00
11444;BME280;5778;47.856;12.154;2023-05-07T08:05:13;96296.38;;;18.88;100.00
11444;BME280;5778;47.856;12.154;2023-05-07T08:07:42;96283.78;;;19.19;100.00
11444;BME280;5778;47.856;12.154;2023-05-07T08:10:11;96277.22;;;19.55;100.00
11444;BME280;5778;47.856;12.154;2023-05-07T08:12:38;96286.41;;;19.54;100.00
11444;BME280;5778;47.856;12.154;2023-05-07T08:15:06;96281.66;;;19.90;100.00
11444;BME280;5778;47.856;12.154;2023-05-07T08:17:33;96287.06;;;20.21;100.00
11444;BME280;5778;47.856;12.154;2023-05-07T08:20:00;96287.13;;;20.46;100.00
11444;BME280;5778;47.856;12.154;2023-05-07T08:22:28;96291.44;;;20.64;100.00
11444;BME280;5778;47.856;12.154;2023-05-07T08:25:01;96290.16;;;20.06;100.00
11444;BME280;5778;47.856;12.154;2023-05-07T08:27:28;96284.72;;;20.45;100.00
11444;BME280;5778;47.856;12.154;2023-05-07T08:29:55;96290.25;;;19.92;100.00
11444;BME280;5778;47.856;12.154;2023-05-07T08:32:22;96286.63;;;19.97;100.00
11444;BME280;5778;47.856;12.154;2023-05-07T08:34:49;96279.00;;;20.38;100.00
11444;BME280;5778;47.856;12.154;2023-05-07T08:37:17;96283.53;;;20.12;100.00
11444;BME280;5778;47.856;12.154;2023-05-07T08:39:44;96288.56;;;20.44;100.00
11444;BME280;5778;47.856;12.154;2023-05-07T08:42:20;96295.53;;;20.36;100.00
11444;BME280;5778;47.856;12.154;2023-05-07T08:44:51;96293.75;;;20.23;100.00
11444;BME280;5778;47.856;12.154;2023-05-07T08:47:23;96287.00;;;20.60;100.00
11444;BME280;5778;47.856;12.154;2023-05-07T08:49:59;96287.59;;;20.40;100.00
11444;BME280;5778;47.856;12.154;2023-05-07T08:52:27;96286.25;;;20.93;100.00
11444;BME280;5778;47.856;12.154;2023-05-07T08:54:54;96296.03;;;21.66;100.00
11444;BME280;5778;47.856;12.154;2023-05-07T08:57:24;96301.25;;;21.88;100.00
11444;BME280;5778;47.856;12.154;2023-05-07T08:59:52;96291.69;;;22.28;100.00
11444;BME280;5778;47.856;12.154;2023-05-07T09:02:19;96290.41;;;22.63;100.00
11444;BME280;5778;47.856;12.154;2023-05-07T09:04:46;96293.66;;;22.77;100.00
11444;BME280;5778;47.856;12.154;2023-05-07T09:07:13;96285.22;;;22.99;100.00
11444;BME280;5778;47.856;12.154;2023-05-07T09:09:44;96291.47;;;23.11;100.00
11444;BME280;5778;47.856;12.154;2023-05-07T09:12:12;96281.97;;;23.26;100.00
11444;BME280;5778;47.856;12.154;2023-05-07T09:14:41;96286.75;;;23.41;100.00
11444;BME280;5778;47.856;12.154;2023-05-07T09:17:09;96289.97;;;23.43;100.00
11444;BME280;5778;47.856;12.154;2023-05-07T09:19:36;96288.00;;;23.64;100.00
11444;BME280;5778;47.856;12.154;2023-05-07T09:22:05;96276.50;;;23.91;100.00
11444;BME280;5778;47.856;12.154;2023-05-07T09:24:48;96281.84;;;23.55;100.00
11444;BME280;5778;47.856;12.154;2023-05-07T09:27:17;96274.34;;;23.52;100.00
11444;BME280;5778;47.856;12.154;2023-05-07T09:29:46;96277.81;;;23.73;100.00
11444;BME280;5778;47.856;12.154;2023-05-07T09:32:15;96279.88;;;23.76;100.00
11444;BME280;5778;47.856;12.154;2023-05-07T09:34:42;96277.28;;;23.47;100.00
11444;BME280;5778;47.856;12.154;2023-05-07T09:37:12;96277.06;;;23.84;100.00
11444;BME280;5778;47.856;12.154;2023-05-07T09:39:40;96270.22;;;24.11;100.00
11444;BME280;5778;47.856;12.154;2023-05-07T09:42:08;96272.69;;;24.28;100.00
11444;BME280;5778;47.856;12.154;2023-05-07T09:44:37;96273.38;;;24.61;100.00
11444;BME280;5778;47.856;12.154;2023-05-07T09:47:10;96263.41;;;24.65;100.00
11444;BME280;5778;47.856;12.154;2023-05-07T09:49:46;96267.03;;;24.69;100.00
11444;BME280;5778;47.856;12.154;2023-05-07T09:52:17;96255.91;;;24.86;100.00
11444;BME280;5778;47.856;12.154;2023-05-07T09:54:48;96260.16;;;24.99;99.84
11444;BME280;5778;47.856;12.154;2023-05-07T09:57:19;96263.75;;;25.15;96.56
11444;BME280;5778;47.856;12.154;2023-05-07T09:59:52;96266.91;;;25.29;97.58
11444;BME280;5778;47.856;12.154;2023-05-07T10:02:23;96265.53;;;24.83;75.68
11444;BME280;5778;47.856;12.154;2023-05-07T10:04:54;96256.34;;;24.88;90.33
11444;BME280;5778;47.856;12.154;2023-05-07T10:07:26;96259.91;;;24.76;100.00
11444;BME280;5778;47.856;12.154;2023-05-07T10:09:58;96261.81;;;25.15;88.75
11444;BME280;5778;47.856;12.154;2023-05-07T10:12:31;96263.03;;;25.30;85.71
11444;BME280;5778;47.856;12.154;2023-05-07T10:15:06;96259.47;;;25.41;89.10
11444;BME280;5778;47.856;12.154;2023-05-07T10:17:37;96261.34;;;25.53;82.17
11444;BME280;5778;47.856;12.154;2023-05-07T10:20:06;96263.03;;;25.57;85.74
11444;BME280;5778;47.856;12.154;2023-05-07T10:22:38;96252.81;;;25.54;75.83
11444;BME280;5778;47.856;12.154;2023-05-07T10:25:09;96260.75;;;25.59;73.97
11444;BME280;5778;47.856;12.154;2023-05-07T10:27:42;96258.09;;;25.47;69.91
11444;BME280;5778;47.856;12.154;2023-05-07T10:30:16;96260.75;;;25.59;77.17
11444;BME280;5778;47.856;12.154;2023-05-07T10:32:49;96265.66;;;26.12;75.84
11444;BME280;5778;47.856;12.154;2023-05-07T10:35:31;96256.50;;;26.20;73.56
11444;BME280;5778;47.856;12.154;2023-05-07T10:38:01;96256.69;;;25.96;71.72
11444;BME280;5778;47.856;12.154;2023-05-07T10:40:30;96264.28;;;25.60;76.21
11444;BME280;5778;47.856;12.154;2023-05-07T10:43:00;96262.91;;;25.97;72.26
11444;BME280;5778;47.856;12.154;2023-05-07T10:45:32;96262.97;;;26.47;72.16
11444;BME280;5778;47.856;12.154;2023-05-07T10:48:11;96260.19;;;26.28;87.38
11444;BME280;5778;47.856;12.154;2023-05-07T10:50:40;96258.69;;;26.30;76.69
11444;BME280;5778;47.856;12.154;2023-05-07T10:53:22;96264.84;;;26.43;75.47
11444;BME280;5778;47.856;12.154;2023-05-07T10:56:25;96259.19;;;26.51;69.79
11444;BME280;5778;47.856;12.154;2023-05-07T10:59:30;96257.34;;;26.71;64.39
11444;BME280;5778;47.856;12.154;2023-05-07T11:02:04;96250.75;;;26.41;64.10
11444;BME280;5778;47.856;12.154;2023-05-07T11:05:23;96253.47;;;26.72;61.96
11444;BME280;5778;47.856;12.154;2023-05-07T11:08:04;96248.34;;;27.05;59.79
11444;BME280;5778;47.856;12.154;2023-05-07T11:10:53;96243.75;;;27.28;60.34
11444;BME280;5778;47.856;12.154;2023-05-07T11:13:43;96246.34;;;27.02;64.52
11444;BME280;5778;47.856;12.154;2023-05-07T11:16:19;96250.88;;;27.32;62.04
11444;BME280;5778;47.856;12.154;2023-05-07T11:18:52;96248.47;;;27.69;65.71
11444;BME280;5778;47.856;12.154;2023-05-07T11:21:35;96246.50;;;27.47;58.55
11444;BME280;5778;47.856;12.154;2023-05-07T11:24:21;96245.22;;;27.41;55.59
11444;BME280;5778;47.856;12.154;2023-05-07T11:26:53;96243.50;;;26.98;58.74
11444;BME280;5778;47.856;12.154;2023-05-07T11:29:23;96256.53;;;27.62;53.35
11444;BME280;5778;47.856;12.154;2023-05-07T11:31:56;96246.34;;;26.52;59.11
11444;BME280;5778;47.856;12.154;2023-05-07T11:34:28;96241.09;;;26.28;68.85
11444;BME280;5778;47.856;12.154;2023-05-07T11:36:59;96243.47;;;26.45;66.34
11444;BME280;5778;47.856;12.154;2023-05-07T11:39:42;96242.94;;;26.89;59.05
11444;BME280;5778;47.856;12.154;2023-05-07T11:42:27;96240.47;;;27.19;53.71
11444;BME280;5778;47.856;12.154;2023-05-07T11:44:54;96237.19;;;27.51;56.64
11444;BME280;5778;47.856;12.154;2023-05-07T11:47:21;96239.72;;;27.79;56.62
11444;BME280;5778;47.856;12.154;2023-05-07T11:49:50;96235.09;;;27.64;51.17
11444;BME280;5778;47.856;12.154;2023-05-07T11:52:20;96246.81;;;27.07;57.89
11444;BME280;5778;47.856;12.154;2023-05-07T11:54:50;96239.94;;;27.51;53.71
11444;BME280;5778;47.856;12.154;2023-05-07T11:57:18;96237.44;;;27.43;51.73
11444;BME280;5778;47.856;12.154;2023-05-07T11:59:45;96231.69;;;27.48;50.06
11444;BME280;5778;47.856;12.154;2023-05-07T12:02:13;96224.28;;;27.71;49.75
11444;BME280;5778;47.856;12.154;2023-05-07T12:04:41;96235.75;;;27.57;51.68
11444;BME280;5778;47.856;12.154;2023-05-07T12:07:11;96239.19;;;27.73;51.75
11444;BME280;5778;47.856;12.154;2023-05-07T12:09:40;96234.97;;;27.57;49.60
11444;BME280;5778;47.856;12.154;2023-05-07T12:12:07;96224.94;;;27.42;48.99
11444;BME280;5778;47.856;12.154;2023-05-07T12:14:37;96224.28;;;27.48;48.91
11444;BME280;5778;47.856;12.154;2023-05-07T12:17:04;96225.25;;;28.01;45.93
11444;BME280;5778;47.856;12.154;2023-05-07T12:19:33;96226.97;;;28.35;44.67
11444;BME280;5778;47.856;12.154;2023-05-07T12:22:01;96221.47;;;28.09;46.81
11444;BME280;5778;47.856;12.154;2023-05-07T12:24:29;96222.72;;;28.15;49.97
11444;BME280;5778;47.856;12.154;2023-05-07T12:26:57;96225.16;;;28.20;49.53
11444;BME280;5778;47.856;12.154;2023-05-07T12:29:24;96224.56;;;28.30;47.59
11444;BME280;5778;47.856;12.154;2023-05-07T12:31:52;96219.34;;;28.21;46.62
11444;BME280;5778;47.856;12.154;2023-05-07T12:34:19;96216.41;;;28.33;45.28
11444;BME280;5778;47.856;12.154;2023-05-07T12:36:47;96221.22;;;28.40;48.27
11444;BME280;5778;47.856;12.154;2023-05-07T12:39:14;96211.94;;;28.48;49.37
11444;BME280;5778;47.856;12.154;2023-05-07T12:41:54;96204.28;;;28.57;45.04
11444;BME280;5778;47.856;12.154;2023-05-07T12:44:25;96203.66;;;28.41;47.67
11444;BME280;5778;47.856;12.154;2023-05-07T12:46:55;96203.97;;;28.13;47.12
11444;BME280;5778;47.856;12.154;2023-05-07T12:49:22;96203.78;;;28.03;47.38
11444;BME280;5778;47.856;12.154;2023-05-07T12:51:50;96207.44;;;27.88;52.38
11444;BME280;5778;47.856;12.154;2023-05-07T12:54:27;96201.81;;;27.17;50.85
11444;BME280;5778;47.856;12.154;2023-05-07T12:57:00;96197.75;;;27.71;55.94
11444;BME280;5778;47.856;12.154;2023-05-07T12:59:33;96189.19;;;28.18;49.22
11444;BME280;5778;47.856;12.154;2023-05-07T13:02:00;96195.13;;;28.46;48.86
11444;BME280;5778;47.856;12.154;2023-05-07T13:04:27;96193.19;;;28.46;46.10
11444;BME280;5778;47.856;12.154;2023-05-07T13:06:54;96189.03;;;28.85;45.88
11444;BME280;5778;47.856;12.154;2023-05-07T13:09:21;96182.72;;;29.11;43.90